Airfield :
LOGIN :

Register | Disclaimer

   EN    FR    IT 

 










Legend :    VFR   Marginal VFR   IFR   Intensive IFR   Very Intensive IFR
Visi :
Ceiling :
>= 8 km
>= 3000ft
5 to 8 km
1000 to 3000 ft
1500m to 5 km
500 to 1000 ft
800 to 1500m
200 to 500 ft
< 800m
< 200 ft
Symbols :   Thunderstorms  Fog  Heavy snow  Heavy precipitations  Wind > 20 kt
SIGMETs :     Misc.  Thunderstorms  Icing  Turbulence  Mountain Waves  Volcanic Ashes







- Airport Elevation : 45 ft
- IATA code : CEG
- Download approach charts


EGNR - Hawarden Chester

CURRENT METAR :
  • 251150Z 33018KT 9999 SCT035 BKN043 08/01 Q1016

EXPIRED METARs :
  • 251120Z 34016KT 9999 SCT035 BKN044 08/00 Q1017
  • 251050Z 32017KT 9999 FEW034 BKN044 08/M02 Q1016
  • 251020Z 32018KT 9999 SCT033 08/M01 Q1016
  • 250950Z 33018KT 9999 SCT031 07/00 Q1016
  • 250920Z 34014KT 9999 SCT032 07/M00 Q1016

TAF TAF EGNR
Valid from the 25 at 12:00 until the 25 at 20:00 UTC


251103Z 2512/2520 35015KT 9999 SCT035
TEMPO 2512/2520 35018G28KT
PROB30
TEMPO 2512/2520 7000 SHRAGS
No reported NOTAMs for that airfield.



MET'MAP, your aeronautical weather chart ! - Copyright ORBIFLY December 2007 - Disclaimer

ORBIFLY MET'MAP TEAM :

Programming & Development : Alexandra Zaïnal
Concept & Development : Baudouin d'Aumeries
Co-Development & Prog : Marc-Olivier Méhu
Technical & hardware support : Manuel Goepfert

Contact : metmap@orbifly.com




SOURCES & CREDITS :

   NOAA